Weather at Calgary (City / Bow River) Heliport

Public forecast

Using degrees Celsius for public forecast. Weather courtesy of forecast.io.

Closest aviation weather report (METAR) to Calgary (City / Bow River) Heliport

Closest report is Calgary International Airport, 4.3 nm (7.9 km) NNE. Retrieved 2022/01/21 11:00 UTC (42 minutes ago):

CYYC 211100Z 36011G16KT 15SM FEW056 BKN084 02/M03 A3003 RMK SC1AC7 SC TR SLP202

Closest aviation forecast (TAF) to Calgary (City / Bow River) Heliport

Closest forecast is Calgary International Airport, 4.3 nm (7.9 km) NNE. Retrieved 2022/01/21 09:42 UTC (2 hours ago):

TAF TAF CYYC 210840Z 2109/2206 35010KT P6SM BKN080 TEMPO 2109/2113 33018G28KT P6SM -SHRA BKN050 FM211400 30005KT P6SM FEW060 BECMG 2114/2116 28004KT SKC FM211800 25005KT P6SM FEW140 BKN240 FM212200 19005KT P6SM BKN120 BKN200 FM220300 120005KT P6SM OVC080 BECMG 2204/2206 25008KT RMK NXT FCST BY 211200Z